M I D A S
Marine Information and Data Acquisition System
Tripno 2157 of the Zeeleeuw from 2011-08-03 05:13:21 to 2011-08-03 14:39:46
Back to CruiseResearch ActivitiesStationsMapUnderway DataData graphs

EquipmentUnitsComment
TimeDGPSUTC
LatitudeDGPSDM.mWGS84
LongitudeDGPSDM.mWGS84
HeadingGyrodeg 
SOGDGPSknotsSpeed over ground
COGDGPSdegCourse over ground
DepthEcho soundermeters200 kHz
Missing or incorrect values are displayed as -999
Navigation data collected by the RV Zeeleeuw from 2011-08-03 05:09:19 to 2011-08-03 14:46:54
Time Latitude Longitude Heading SOG COG Depth
2011-08-03 05:10:27 51°13.63 2°55.988 113.9 4.6 293 -999
2011-08-03 05:11:28 51°13.673 2°55.86 123.5 5.8 302 -999
2011-08-03 05:12:27 51°13.734 2°55.736 137.4 6.1 315 -999
2011-08-03 05:13:27 51°13.817 2°55.645 158.5 5.8 336 -999
2011-08-03 05:14:28 51°13.902 2°55.621 187.2 4.6 3 -999
2011-08-03 05:15:27 51°13.961 2°55.646 211 2.2 22 -999
2011-08-03 05:16:27 51°13.968 2°55.633 259.4 1.8 272 13.1
2011-08-03 05:17:25 51°13.998 2°55.565 320.4 4.8 318 -999
2011-08-03 05:18:25 51°14.083 2°55.468 330.1 7.2 328 12.7
2011-08-03 05:19:23 51°14.197 2°55.364 333.2 9.1 331 12.6
2011-08-03 05:20:23 51°14.337 2°55.235 332 10.3 329 12.4
2011-08-03 05:21:23 51°14.49 2°55.085 329.4 11.5 326 12.4
2011-08-03 05:22:23 51°14.66 2°54.897 330 13 326 12.9
2011-08-03 05:23:23 51°14.835 2°54.692 323.7 12.9 322 13.1
2011-08-03 05:24:23 51°15.011 2°54.498 328.6 12.8 327 12.8
2011-08-03 05:25:23 51°15.186 2°54.303 324.1 12.7 324 12.5
2011-08-03 05:26:23 51°15.355 2°54.1 323.9 12.7 323 12.6
2011-08-03 05:27:23 51°15.523 2°53.896 319.5 12.6 318 12.7
2011-08-03 05:28:23 51°15.676 2°53.668 319.4 12.6 317 13.2
2011-08-03 05:29:23 51°15.847 2°53.473 332.1 12.7 332 13.4
2011-08-03 05:30:23 51°16.031 2°53.308 329.6 12.7 328 13.1
2011-08-03 05:31:23 51°16.214 2°53.136 331.8 12.7 330 13.2
2011-08-03 05:32:23 51°16.395 2°52.962 329.2 12.7 329 13.3
2011-08-03 05:33:23 51°16.584 2°52.806 338.4 12.9 338 12.7
2011-08-03 05:34:24 51°16.786 2°52.672 337.7 13 337 11.1
2011-08-03 05:35:23 51°16.978 2°52.53 331.2 12.9 331 10.9
2011-08-03 05:36:23 51°17.166 2°52.364 331.2 12.9 331 11.2
2011-08-03 05:37:23 51°17.372 2°52.272 353.7 12.9 352 11.8
2011-08-03 05:38:23 51°17.584 2°52.214 349.7 12.9 347 12.4
2011-08-03 05:39:23 51°17.793 2°52.132 348.8 12.9 348 12.3
2011-08-03 05:40:23 51°18.001 2°52.041 341.8 13 340 12.1
2011-08-03 05:41:23 51°18.206 2°51.935 345.8 13 344 12
2011-08-03 05:42:23 51°18.411 2°51.826 342.5 13 342 12.8
2011-08-03 05:43:23 51°18.62 2°51.728 347.5 13 346 14
2011-08-03 05:44:23 51°18.827 2°51.625 339.9 13 338 15.1
2011-08-03 05:45:23 51°19.032 2°51.513 345.6 13.1 344 16
2011-08-03 05:46:23 51°19.237 2°51.397 340.4 13 341 16.2
2011-08-03 05:47:23 51°19.443 2°51.298 342.7 12.9 340 15.9
2011-08-03 05:48:23 51°19.645 2°51.182 344.5 12.9 343 15.3
2011-08-03 05:49:23 51°19.852 2°51.08 343.5 12.9 341 13.3
2011-08-03 05:50:23 51°20.051 2°50.947 339.5 13 337 14.3
2011-08-03 05:51:23 51°20.253 2°50.818 340.6 13.1 338 14.9
2011-08-03 05:52:23 51°20.458 2°50.703 346.5 13.1 345 17.4
2011-08-03 05:53:23 51°20.665 2°50.6 341.2 13.1 338 20.5
2011-08-03 05:54:23 51°20.873 2°50.488 345.8 13.3 345 23
2011-08-03 05:55:23 51°21.077 2°50.37 340.5 12.9 339 23.9
2011-08-03 05:56:23 51°21.285 2°50.268 349.3 13.1 348 24.1
2011-08-03 05:57:23 51°21.495 2°50.182 344.6 13.1 343 23.2
2011-08-03 05:58:23 51°21.706 2°50.09 349.2 13.2 348 22.7
2011-08-03 05:59:23 51°21.919 2°50.009 345.4 13.1 343 23.3
2011-08-03 06:00:23 51°22.129 2°49.912 348.5 13.2 347 23.9
2011-08-03 06:01:23 51°22.341 2°49.826 343.8 13.1 342 24
2011-08-03 06:02:23 51°22.548 2°49.723 346.4 13.1 346 21.3
2011-08-03 06:03:23 51°22.76 2°49.644 347.7 13.2 346 16
2011-08-03 06:04:23 51°22.97 2°49.541 344.8 13.2 344 17.2
2011-08-03 06:05:23 51°23.183 2°49.454 345.9 13.2 344 19.1
2011-08-03 06:06:23 51°23.392 2°49.343 344.8 13.3 345 21
2011-08-03 06:07:23 51°23.602 2°49.244 341.7 13.1 341 22.5
2011-08-03 06:08:23 51°23.808 2°49.127 341.9 13.1 340 22.7
2011-08-03 06:09:23 51°24.019 2°49.034 344.8 13.2 342 23
2011-08-03 06:10:23 51°24.226 2°48.928 349.9 13 348 23.2
2011-08-03 06:11:23 51°24.439 2°48.86 350.5 13.1 347 22
2011-08-03 06:12:23 51°24.651 2°48.782 352.3 13.1 349 21.5
2011-08-03 06:13:23 51°24.867 2°48.729 353.2 13.1 350 24.8
2011-08-03 06:14:23 51°25.078 2°48.65 349.9 13.1 347 26.3
2011-08-03 06:15:23 51°25.294 2°48.595 355 13.1 351 29.3
2011-08-03 06:16:23 51°25.509 2°48.523 350.2 13.2 347 25.3
2011-08-03 06:17:23 51°25.726 2°48.467 354.3 13.3 351 24
2011-08-03 06:18:23 51°25.943 2°48.393 350.1 13.4 348 23.9
2011-08-03 06:19:23 51°26.163 2°48.33 348.2 13.4 346 21
2011-08-03 06:20:23 51°26.379 2°48.242 349 13.4 347 22.7
2011-08-03 06:21:23 51°26.595 2°48.17 350 13.2 347 22.9
2011-08-03 06:22:23 51°26.808 2°48.081 346.7 13.3 345 24.4
2011-08-03 06:23:23 51°27.023 2°48.008 353.4 13.1 351 26.5
2011-08-03 06:24:23 51°27.233 2°47.915 344.4 13.1 342 26.9
2011-08-03 06:25:23 51°27.445 2°47.825 351.7 13.1 349 27.1
2011-08-03 06:26:23 51°27.66 2°47.753 348.8 13.2 346 27.6
2011-08-03 06:27:23 51°27.873 2°47.675 351.9 13.2 349 29.7
2011-08-03 06:28:23 51°28.087 2°47.595 346.1 13.1 344 31.5
2011-08-03 06:29:23 51°28.299 2°47.507 348.9 13.3 347 31
2011-08-03 06:30:23 51°28.516 2°47.438 348 13.3 345 28.8
2011-08-03 06:31:23 51°28.73 2°47.347 348.5 13.3 348 26.7
2011-08-03 06:32:23 51°28.947 2°47.279 348.4 13.3 346 27
2011-08-03 06:33:23 51°29.161 2°47.191 349.6 13.3 348 24.7
2011-08-03 06:34:23 51°29.376 2°47.125 351.4 13.1 349 23.4
2011-08-03 06:35:23 51°29.59 2°47.05 350 13.1 347 22.7
2011-08-03 06:36:23 51°29.801 2°46.958 347.9 13.2 346 24.9
2011-08-03 06:37:23 51°30.015 2°46.887 349.8 13.2 347 21.4
2011-08-03 06:38:23 51°30.228 2°46.798 349.1 13.2 348 25.9
2011-08-03 06:39:23 51°30.443 2°46.723 347 13.2 345 27.1
2011-08-03 06:40:23 51°30.656 2°46.642 352.1 13.2 350 27.5
2011-08-03 06:41:23 51°30.87 2°46.561 348.3 13.3 346 26.8
2011-08-03 06:42:23 51°31.084 2°46.489 349.2 13.2 346 27.3
2011-08-03 06:43:23 51°31.296 2°46.397 347 13.2 345 28.6
2011-08-03 06:44:23 51°31.51 2°46.318 352.8 13.2 349 30.4
2011-08-03 06:45:23 51°31.724 2°46.241 346.9 13.2 344 31.4
2011-08-03 06:46:23 51°31.936 2°46.153 348.4 13.2 347 31.6
2011-08-03 06:47:23 51°32.152 2°46.09 351.6 13.2 349 31
2011-08-03 06:48:23 51°32.365 2°46.007 346.3 13.2 344 32.7
2011-08-03 06:49:23 51°32.58 2°45.937 351.4 13.2 349 31.7
2011-08-03 06:50:23 51°32.792 2°45.849 347 13.2 345 32.5
2011-08-03 06:51:23 51°33.008 2°45.781 352.7 13.2 350 29.9
2011-08-03 06:52:23 51°33.222 2°45.699 346.6 13.3 345 32.2
2011-08-03 06:53:23 51°33.439 2°45.632 350.1 13.3 348 30.8
2011-08-03 06:54:23 51°33.654 2°45.544 348.2 13.3 347 30.2
2011-08-03 06:55:23 51°33.874 2°45.482 350.7 13.4 349 29.6
2011-08-03 06:56:23 51°34.088 2°45.39 346.9 13.3 346 26.8
2011-08-03 06:57:23 51°34.305 2°45.314 347.2 13.4 343 15.4
2011-08-03 06:58:23 51°34.521 2°45.231 352.4 13.5 348 16.2
2011-08-03 06:59:23 51°34.74 2°45.152 348.9 13.4 344 19.9
2011-08-03 07:00:23 51°34.952 2°45.049 347.3 13.3 345 21
2011-08-03 07:01:23 51°35.167 2°44.973 348.4 13.2 345 25.4
2011-08-03 07:02:23 51°35.381 2°44.891 351.8 13.2 349 27.5
2011-08-03 07:03:23 51°35.595 2°44.817 347.8 13.2 345 30.2
2011-08-03 07:04:23 51°35.806 2°44.722 347.4 13.2 346 35.5
2011-08-03 07:05:23 51°36.018 2°44.634 347.5 13.2 345 33.5
2011-08-03 07:06:23 51°36.233 2°44.559 351.9 13.2 350 37.1
2011-08-03 07:07:23 51°36.449 2°44.496 351.8 13.2 350 37
2011-08-03 07:08:23 51°36.663 2°44.413 346.2 13.2 344 36.5
2011-08-03 07:09:23 51°36.875 2°44.325 348.7 13.2 347 36.4
2011-08-03 07:10:23 51°37.09 2°44.261 351.4 13.2 348 35.9
2011-08-03 07:11:23 51°37.304 2°44.181 346.4 13.2 344 37.2
2011-08-03 07:12:23 51°37.518 2°44.101 351.5 13.3 349 36.2
2011-08-03 07:13:23 51°37.731 2°44.017 346.2 13.3 344 35.8
2011-08-03 07:14:23 51°37.945 2°43.928 349.2 13.3 348 35.4
2011-08-03 07:15:23 51°38.164 2°43.86 349.5 13.4 347 33.6
2011-08-03 07:16:23 51°38.378 2°43.772 349.8 13.3 348 38.9
2011-08-03 07:17:23 51°38.595 2°43.701 348.5 13.3 346 37.3
2011-08-03 07:18:23 51°38.808 2°43.613 351.1 13.3 349 36.1
2011-08-03 07:19:23 51°39.025 2°43.546 350.5 13.3 347 37.6
2011-08-03 07:20:23 51°39.239 2°43.462 351.7 13.2 350 36
2011-08-03 07:21:23 51°39.453 2°43.38 348.7 13.3 349 34.4
2011-08-03 07:22:23 51°39.67 2°43.326 353 13.2 350 34.5
2011-08-03 07:23:23 51°39.887 2°43.287 357.2 13.1 353 34.6
2011-08-03 07:24:23 51°40.103 2°43.231 353.2 13.2 349 31.7
2011-08-03 07:25:23 51°40.318 2°43.175 356.5 13.1 354 31.5
2011-08-03 07:26:23 51°40.535 2°43.143 356.7 13.1 353 34.8
2011-08-03 07:27:23 51°40.749 2°43.081 352.8 13.1 350 32.9
2011-08-03 07:28:23 51°40.964 2°43.032 358.4 13 354 27.2
2011-08-03 07:29:23 51°41.178 2°42.986 353.4 13 349 33.2
2011-08-03 07:30:23 51°41.392 2°42.928 355.7 13 353 31.2
2011-08-03 07:31:23 51°41.607 2°42.894 357.9 13 354 34.1
2011-08-03 07:32:23 51°41.82 2°42.835 353.5 13 350 33.2
2011-08-03 07:33:23 51°42.035 2°42.792 357.5 13 353 33.5
2011-08-03 07:34:23 51°42.247 2°42.731 353.3 13 350 34.7
2011-08-03 07:35:23 51°42.462 2°42.688 358.6 13 356 36.1
2011-08-03 07:36:23 51°42.675 2°42.638 351.6 13 348 34.9
2011-08-03 07:37:23 51°42.887 2°42.574 355.9 12.9 353 34.8
2011-08-03 07:38:23 51°43.099 2°42.516 351.2 12.9 348 39.4
2011-08-03 07:39:23 51°43.311 2°42.454 356.4 12.9 352 38.7
2011-08-03 07:40:23 51°43.522 2°42.391 350.6 12.9 347 37.2
2011-08-03 07:41:23 51°43.733 2°42.332 355.6 12.9 352 37.5
2011-08-03 07:42:23 51°43.944 2°42.275 351.1 12.9 348 34
2011-08-03 07:43:23 51°44.154 2°42.211 356.3 12.8 353 40.4
2011-08-03 07:44:23 51°44.365 2°42.159 352.9 12.9 348 38.4
2011-08-03 07:45:23 51°44.574 2°42.085 352.9 12.9 350 36.8
2011-08-03 07:46:23 51°44.75 2°42.038 354.1 8.1 350 40
2011-08-03 07:47:23 51°44.854 2°42.004 353.4 5.4 349 34.9
2011-08-03 07:48:23 51°44.933 2°41.981 357.9 4.5 351 37.3
2011-08-03 07:49:23 51°44.996 2°41.967 0.6 3.3 353 39.8
2011-08-03 07:50:23 51°45.041 2°41.957 359.5 2.1 349 38.1
2011-08-03 07:51:23 51°45.053 2°41.946 4 0.5 306 37.1
2011-08-03 07:52:23 51°45.06 2°41.933 5.8 0.7 321 37.5
2011-08-03 07:53:23 51°45.082 2°41.922 0.3 2.2 348 38.7
2011-08-03 07:54:23 51°45.127 2°41.899 343.4 3.1 335 36.3
2011-08-03 07:55:23 51°45.169 2°41.855 328.2 3 321 31.9
2011-08-03 07:56:23 51°45.202 2°41.798 318 3 310 36.6
2011-08-03 07:57:23 51°45.233 2°41.732 310 3.2 304 36.1
2011-08-03 07:58:23 51°45.258 2°41.658 301.1 3.1 295 31.9
2011-08-03 07:59:23 51°45.273 2°41.586 291.2 2.8 286 36.5
2011-08-03 08:00:23 51°45.283 2°41.51 283.1 2.9 278 38
2011-08-03 08:01:23 51°45.287 2°41.431 276.2 3 273 39
2011-08-03 08:02:23 51°45.286 2°41.351 268.8 3 266 38.8
2011-08-03 08:03:23 51°45.279 2°41.272 260.6 2.9 258 34.5
2011-08-03 08:04:23 51°45.266 2°41.199 251.8 2.9 251 39.2
2011-08-03 08:05:23 51°45.247 2°41.127 244.4 2.9 243 41.2
2011-08-03 08:06:23 51°45.223 2°41.063 234.5 2.8 236 38.6
2011-08-03 08:07:23 51°45.192 2°41 227.4 3.1 229 34.4
2011-08-03 08:08:23 51°45.154 2°40.937 221.1 3.4 223 41.4
2011-08-03 08:09:23 51°45.111 2°40.879 213.7 3.3 217 39.3
2011-08-03 08:10:23 51°45.066 2°40.828 207.8 3.3 212 40.9
2011-08-03 08:11:23 51°45.019 2°40.787 199.5 3.1 206 41.2
2011-08-03 08:12:23 51°44.971 2°40.758 190.6 3 198 39.3
2011-08-03 08:13:23 51°44.922 2°40.737 183.5 3.1 193 38
2011-08-03 08:14:23 51°44.872 2°40.724 175.8 3 186 34.7
2011-08-03 08:15:23 51°44.823 2°40.721 167 2.9 178 35.3
2011-08-03 08:16:23 51°44.775 2°40.739 138.5 3.3 144 37.9
2011-08-03 08:17:23 51°44.776 2°40.866 66.2 7.4 67 37.1
2011-08-03 08:18:23 51°44.843 2°41.094 68.3 10.4 69 37.7
2011-08-03 08:19:23 51°44.907 2°41.358 70.1 10.7 72 37.4
2011-08-03 08:20:23 51°44.943 2°41.64 75.9 10.7 76 41.7
2011-08-03 08:21:23 51°44.992 2°41.857 60 6.1 59 38.5
2011-08-03 08:22:23 51°45.028 2°41.96 67.6 3.3 71 38.9
2011-08-03 08:23:23 51°45.028 2°42.01 101.7 1 125 38.5
2011-08-03 08:24:23 51°45.018 2°42.012 127.3 0.7 199 38.9
2011-08-03 08:25:23 51°45.006 2°42.006 139.6 0.7 202 39.5
2011-08-03 08:26:23 51°44.994 2°41.996 151 0.8 210 39.4
2011-08-03 08:27:23 51°44.982 2°41.984 160 0.9 212 38.8
2011-08-03 08:28:23 51°44.97 2°41.97 167.9 0.9 217 38.3
2011-08-03 08:29:23 51°44.958 2°41.955 175.7 0.9 219 38.2
2011-08-03 08:30:23 51°44.946 2°41.94 183 0.9 220 36.7
2011-08-03 08:31:23 51°44.934 2°41.924 189.3 0.9 222 35.8
2011-08-03 08:32:23 51°44.921 2°41.905 195 1 221 36.1
2011-08-03 08:33:23 51°44.91 2°41.887 200.9 1 224 38.7
2011-08-03 08:34:23 51°44.898 2°41.87 206 0.9 224 40.6
2011-08-03 08:35:23 51°44.886 2°41.853 210.2 0.9 221 40.8
2011-08-03 08:36:23 51°44.874 2°41.837 214.9 1 220 40.9
2011-08-03 08:37:23 51°44.863 2°41.82 219.4 0.9 221 40.7
2011-08-03 08:38:23 51°44.851 2°41.804 225.1 0.9 220 40.4
2011-08-03 08:39:23 51°44.839 2°41.788 230.9 1 219 38.7
2011-08-03 08:40:23 51°44.826 2°41.771 235.8 1 218 38.2
2011-08-03 08:41:23 51°44.813 2°41.754 238.2 1.1 217 36.7
2011-08-03 08:42:23 51°44.799 2°41.738 239.6 1.1 217 35.8
2011-08-03 08:43:23 51°44.783 2°41.721 242.5 1.1 215 38.1
2011-08-03 08:44:23 51°44.768 2°41.705 245.1 1.1 213 39.9
2011-08-03 08:45:23 51°44.752 2°41.692 243.2 1.1 208 40.2
2011-08-03 08:46:23 51°44.735 2°41.678 239.6 1.2 208 38.3
2011-08-03 08:47:23 51°44.711 2°41.652 213.1 2.6 212 35.8
2011-08-03 08:48:23 51°44.655 2°41.637 156 4.1 172 36.6
2011-08-03 08:49:23 51°44.552 2°41.687 155.3 8.2 162 36.8
2011-08-03 08:50:23 51°44.391 2°41.761 159 11.5 164 36.5
2011-08-03 08:51:23 51°44.191 2°41.857 156.2 13.1 160 39
2011-08-03 08:52:23 51°43.981 2°41.983 155.1 13.5 160 38.6
2011-08-03 08:53:23 51°43.764 2°42.087 161.5 13.5 165 35.8
2011-08-03 08:54:23 51°43.551 2°42.205 155.2 13.6 160 38.7
2011-08-03 08:55:23 51°43.334 2°42.31 160.1 13.7 164 38.8
2011-08-03 08:56:23 51°43.121 2°42.426 155.9 13.4 161 40.8
2011-08-03 08:57:23 51°42.905 2°42.531 155.9 13.5 161 34.4
2011-08-03 08:58:23 51°42.691 2°42.642 159.6 13.7 165 34
2011-08-03 08:59:23 51°42.476 2°42.751 152.2 13.4 157 35.2
2011-08-03 09:00:23 51°42.267 2°42.881 155.6 13.5 161 35.3
2011-08-03 09:01:23 51°42.053 2°42.996 155.4 13.5 160 35.4
2011-08-03 09:02:23 51°41.843 2°43.124 152.4 13.5 159 34.4
2011-08-03 09:03:23 51°41.633 2°43.251 152.2 13.4 158 32.9
2011-08-03 09:04:23 51°41.426 2°43.386 154 13.5 160 34
2011-08-03 09:05:23 51°41.211 2°43.499 155.3 13.6 162 32.9
2011-08-03 09:06:23 51°40.997 2°43.621 151.8 13.5 158 33.2
2011-08-03 09:07:23 51°40.783 2°43.742 156.9 13.7 163 33.4
2011-08-03 09:08:23 51°40.573 2°43.874 148.1 13.5 154 32.8
2011-08-03 09:09:23 51°40.367 2°44.023 148.2 13.4 155 35
2011-08-03 09:10:23 51°40.156 2°44.154 154.4 13.6 160 35.8
2011-08-03 09:11:23 51°39.946 2°44.292 151.5 13.6 159 34.1
2011-08-03 09:12:23 51°39.733 2°44.418 151.7 13.6 158 37.6
2011-08-03 09:13:23 51°39.526 2°44.562 153.6 13.6 160 34.1
2011-08-03 09:14:23 51°39.315 2°44.698 148.6 13.6 156 37.2
2011-08-03 09:15:23 51°39.103 2°44.832 153.2 13.7 159 35.8
2011-08-03 09:16:23 51°38.895 2°44.98 150.1 13.8 158 29.5
2011-08-03 09:17:23 51°38.679 2°45.107 151.3 13.7 158 33.5
2011-08-03 09:18:23 51°38.469 2°45.252 151.6 13.7 158 30.6
2011-08-03 09:19:23 51°38.255 2°45.39 150.1 13.9 158 35.4
2011-08-03 09:20:23 51°38.038 2°45.518 151.8 13.9 159 34
2011-08-03 09:21:23 51°37.824 2°45.649 154 13.8 161 33.5
2011-08-03 09:22:23 51°37.614 2°45.789 148.7 13.5 155 33.7
2011-08-03 09:23:23 51°37.42 2°45.963 142.1 13.3 151 34.3
2011-08-03 09:24:23 51°37.224 2°46.13 143.9 13.2 151 30.4
2011-08-03 09:25:23 51°37.029 2°46.297 147.4 13.4 154 28.1
2011-08-03 09:26:23 51°36.834 2°46.462 141.5 13.1 150 24.3
2011-08-03 09:27:23 51°36.638 2°46.62 145.7 13.1 154 21.3
2011-08-03 09:28:23 51°36.446 2°46.781 142 13 152 17.4
2011-08-03 09:29:23 51°36.245 2°46.925 145.2 13.3 154 25.2
2011-08-03 09:30:23 51°36.049 2°47.097 141.4 13.5 152 33.6
2011-08-03 09:31:23 51°35.843 2°47.251 145.6 13.5 154 35.8
2011-08-03 09:32:23 51°35.649 2°47.42 142.2 12.8 151 35.2
2011-08-03 09:33:23 51°35.461 2°47.575 146.4 12.8 156 34.2
2011-08-03 09:34:23 51°35.267 2°47.712 146.4 12.4 155 32.3
2011-08-03 09:35:23 51°35.09 2°47.872 135.3 12 144 33.2
2011-08-03 09:36:23 51°34.937 2°48.074 130.6 11.9 140 26.7
2011-08-03 09:37:23 51°34.777 2°48.266 135.9 11.9 145 29.1
2011-08-03 09:38:23 51°34.618 2°48.452 131.4 11.8 141 28.7
2011-08-03 09:39:23 51°34.467 2°48.649 130.7 11.7 140 27.7
2011-08-03 09:40:23 51°34.306 2°48.828 135.5 11.8 146 29.5
2011-08-03 09:41:23 51°34.151 2°49.016 132 11.6 143 29.9
2011-08-03 09:42:23 51°33.999 2°49.203 133.3 11.5 145 31.8
2011-08-03 09:43:23 51°33.837 2°49.371 136.2 11.6 147 31.3
2011-08-03 09:44:23 51°33.683 2°49.552 130.7 11.4 142 33.2
2011-08-03 09:45:23 51°33.531 2°49.736 132.9 11.5 144 31.4
2011-08-03 09:46:23 51°33.37 2°49.906 134.6 11.6 146 33.6
2011-08-03 09:47:23 51°33.216 2°50.087 130.7 11.4 142 32.2
2011-08-03 09:48:23 51°33.061 2°50.268 133.4 11.5 145 32.6
2011-08-03 09:49:23 51°32.898 2°50.437 134.4 11.7 147 31.3
2011-08-03 09:50:23 51°32.739 2°50.617 130.3 11.6 143 30.4
2011-08-03 09:51:23 51°32.582 2°50.8 134.3 11.8 147 32
2011-08-03 09:52:23 51°32.42 2°50.978 130.2 11.7 142 30.1
2011-08-03 09:53:23 51°32.276 2°51.182 126.5 11.6 138 30
2011-08-03 09:54:23 51°32.125 2°51.38 132.2 11.5 144 29.2
2011-08-03 09:55:23 51°31.99 2°51.559 123.8 9 136 28.6
2011-08-03 09:56:23 51°31.899 2°51.717 118.1 7.6 132 28.6
2011-08-03 09:57:23 51°31.813 2°51.857 121 6.5 138 27
2011-08-03 09:58:23 51°31.746 2°51.947 119.2 4.6 142 25.4
2011-08-03 09:59:23 51°31.689 2°52.011 121.2 4 149 24.8
2011-08-03 10:00:23 51°31.631 2°52.069 120.9 4.8 145 21.8
2011-08-03 10:01:23 51°31.537 2°52.16 139.4 8.1 153 22.4
2011-08-03 10:02:23 51°31.442 2°52.248 120.4 4.3 147 22.1
2011-08-03 10:03:23 51°31.399 2°52.269 121.5 2 188 19.4
2011-08-03 10:04:23 51°31.372 2°52.247 120.6 1.7 210 22.7
2011-08-03 10:05:23 51°31.345 2°52.223 116.5 1.9 209 21.7
2011-08-03 10:06:23 51°31.318 2°52.2 111.4 2 207 21.2
2011-08-03 10:07:23 51°31.288 2°52.176 110.5 2 206 22.2
2011-08-03 10:08:23 51°31.26 2°52.153 111.9 1.9 207 22.4
2011-08-03 10:09:23 51°31.231 2°52.13 114 2 206 20.7
2011-08-03 10:10:23 51°31.201 2°52.108 118.3 2.1 204 18.6
2011-08-03 10:11:23 51°31.172 2°52.087 121.3 1.9 204 22.5
2011-08-03 10:12:23 51°31.143 2°52.066 123.2 1.9 206 22.3
2011-08-03 10:13:23 51°31.113 2°52.043 126.1 2 205 20.8
2011-08-03 10:14:23 51°31.08 2°52.023 131.2 2.3 195 18.4
2011-08-03 10:15:23 51°31.039 2°52.024 122.4 2.6 167 21.6
2011-08-03 10:16:23 51°30.999 2°52.054 103.9 2.6 144 21.6
2011-08-03 10:17:23 51°30.968 2°52.098 91.7 2.3 132 20.7
2011-08-03 10:18:23 51°30.949 2°52.141 77.8 1.8 119 20.2
2011-08-03 10:19:23 51°30.94 2°52.181 63.1 1.4 97 19.9
2011-08-03 10:20:23 51°30.943 2°52.214 48.8 1.1 66 19.2
2011-08-03 10:21:23 51°30.955 2°52.233 33.7 1 23 19.1
2011-08-03 10:22:23 51°30.97 2°52.231 19.3 1 335 20.5
2011-08-03 10:23:23 51°30.986 2°52.214 9.6 1.4 325 20.9
2011-08-03 10:24:23 51°31.008 2°52.192 5.4 1.7 328 21.5
2011-08-03 10:25:23 51°31.032 2°52.158 352.7 2.1 310 21.4
2011-08-03 10:26:23 51°31.067 2°52.111 0.7 4.7 352 21.4
2011-08-03 10:27:23 51°31.168 2°52.173 14.9 8.2 6 21.6
2011-08-03 10:28:23 51°31.324 2°52.163 9.1 9.7 4 21.6
2011-08-03 10:29:23 51°31.483 2°52.205 24.8 9 23 22.2
2011-08-03 10:30:23 51°31.504 2°52.315 99.1 3.9 125 21.5
2011-08-03 10:31:23 51°31.462 2°52.368 111.5 3 152 19.6
2011-08-03 10:32:23 51°31.424 2°52.405 97.8 2.4 142 20.4
2011-08-03 10:33:23 51°31.403 2°52.444 78.5 1.7 123 21.7
2011-08-03 10:34:23 51°31.394 2°52.478 58.5 1.1 99 21.3
2011-08-03 10:35:23 51°31.399 2°52.502 38.6 0.9 46 18.8
2011-08-03 10:36:23 51°31.408 2°52.507 30.1 0.3 270 19.7
2011-08-03 10:37:23 51°31.388 2°52.48 57.1 2.5 225 21.4
2011-08-03 10:38:27 51°31.362 2°52.443 67.6 1.7 218 4.9
2011-08-03 10:39:24 51°31.341 2°52.416 71.4 1.7 221 21.5
2011-08-03 10:40:23 51°31.32 2°52.388 72.9 1.7 217 21.7
2011-08-03 10:41:23 51°31.297 2°52.362 73.2 1.7 216 21.8
2011-08-03 10:42:23 51°31.273 2°52.335 70.5 1.8 215 19
2011-08-03 10:43:23 51°31.25 2°52.309 72.4 1.6 215 22
2011-08-03 10:44:23 51°31.228 2°52.285 69.7 1.6 215 21.9
2011-08-03 10:45:23 51°31.205 2°52.261 65.2 1.7 213 20.6
2011-08-03 10:46:23 51°31.182 2°52.238 62.9 1.6 214 20.1
2011-08-03 10:47:23 51°31.16 2°52.215 62 1.5 213 21.6
2011-08-03 10:48:23 51°31.139 2°52.193 59.1 1.5 212 22
2011-08-03 10:49:23 51°31.119 2°52.172 57.2 1.5 212 21.8
2011-08-03 10:50:23 51°31.097 2°52.151 53.8 1.5 210 20.5
2011-08-03 10:51:23 51°31.076 2°52.132 52 1.4 209 22.2
2011-08-03 10:52:23 51°31.055 2°52.112 48.2 1.5 211 20.5
2011-08-03 10:53:23 51°31.047 2°52.111 41.6 1.1 51 18.8
2011-08-03 10:54:23 51°31.053 2°52.171 93.2 3.7 119 22.2
2011-08-03 10:55:23 51°30.996 2°52.313 104.1 8.5 113 20.7
2011-08-03 10:56:23 51°30.934 2°52.563 105.9 11.3 115 18
2011-08-03 10:57:23 51°30.847 2°52.845 110.3 12 120 18.8
2011-08-03 10:58:23 51°30.752 2°53.126 107.3 11.9 116 19.4
2011-08-03 10:59:23 51°30.673 2°53.414 106.8 11.8 114 24.2
2011-08-03 11:00:23 51°30.582 2°53.697 110.8 11.8 115 27.1
2011-08-03 11:01:23 51°30.505 2°53.985 106.8 11.7 112 31.4
2011-08-03 11:02:23 51°30.424 2°54.27 111.9 11.7 116 34.5
2011-08-03 11:03:23 51°30.34 2°54.553 111.3 11.7 116 33.3
2011-08-03 11:04:23 51°30.25 2°54.828 108.6 11.3 115 34.1
2011-08-03 11:05:23 51°30.172 2°55.101 109.8 11.3 118 33.7
2011-08-03 11:06:23 51°30.083 2°55.368 107.1 11.1 113 29.9
2011-08-03 11:07:23 51°30.009 2°55.637 107 11 113 30.4
2011-08-03 11:08:23 51°29.924 2°55.898 112.5 11.2 120 29.5
2011-08-03 11:09:23 51°29.843 2°56.161 106.4 11 114 28.1
2011-08-03 11:10:23 51°29.766 2°56.427 107.3 11 114 27.8
2011-08-03 11:11:23 51°29.678 2°56.687 112 11 119 27.5
2011-08-03 11:12:23 51°29.591 2°56.946 110.4 11 117 25.5
2011-08-03 11:13:23 51°29.513 2°57.212 107.5 11.1 114 24.6
2011-08-03 11:14:23 51°29.426 2°57.479 112.7 11.4 119 23.9
2011-08-03 11:15:23 51°29.341 2°57.749 106.6 11.3 113 24.3
2011-08-03 11:16:23 51°29.253 2°58.019 112.3 11.5 119 25.8
2011-08-03 11:17:23 51°29.171 2°58.291 106.5 11.2 113 27
2011-08-03 11:18:23 51°29.086 2°58.56 111.9 11.4 120 27.4
2011-08-03 11:19:23 51°28.996 2°58.825 107.5 11.2 115 28.8
2011-08-03 11:20:23 51°28.912 2°59.093 111.5 11.4 120 28.6
2011-08-03 11:21:23 51°28.82 2°59.357 109 11.3 116 29.1
2011-08-03 11:22:23 51°28.742 2°59.63 108.2 11.2 115 27.7
2011-08-03 11:23:23 51°28.649 2°59.895 111.1 11.5 119 25.2
2011-08-03 11:24:23 51°28.564 3°0.165 105.7 11.3 113 21.9
2011-08-03 11:25:23 51°28.481 3°0.443 111.4 11.7 119 20.5
2011-08-03 11:26:23 51°28.392 3°0.718 108 11.6 115 20.8
2011-08-03 11:27:23 51°28.312 3°0.998 107.6 11.6 115 21.8
2011-08-03 11:28:23 51°28.227 3°1.275 111.7 11.6 119 21.9
2011-08-03 11:29:23 51°28.135 3°1.545 108.1 11.4 114 23.5
2011-08-03 11:30:23 51°28.056 3°1.822 110.9 11.5 118 23.8
2011-08-03 11:31:23 51°27.978 3°2.099 99.2 11.2 104 23.2
2011-08-03 11:32:23 51°27.955 3°2.391 91.4 11.1 96 23
2011-08-03 11:33:23 51°27.929 3°2.685 92.4 11.1 97 21.9
2011-08-03 11:34:23 51°27.9 3°2.979 96.3 11.2 103 20.7
2011-08-03 11:35:23 51°27.866 3°3.274 92.9 11.3 100 19.5
2011-08-03 11:36:23 51°27.847 3°3.571 89.3 11.2 94 18.5
2011-08-03 11:37:23 51°27.833 3°3.87 88.3 11.2 94 17.7
2011-08-03 11:38:23 51°27.812 3°4.169 92.2 11.4 98 16.6
2011-08-03 11:39:23 51°27.777 3°4.47 96.6 11.5 102 15
2011-08-03 11:40:23 51°27.744 3°4.772 91.3 11.4 96 13.1
2011-08-03 11:41:23 51°27.722 3°5.075 93 11.6 98 14
2011-08-03 11:42:23 51°27.675 3°5.377 102.8 11.8 110 14.7
2011-08-03 11:43:23 51°27.614 3°5.675 98.4 11.7 105 14.9
2011-08-03 11:44:23 51°27.556 3°5.976 103.6 11.9 110 14.2
2011-08-03 11:45:23 51°27.505 3°6.278 93.7 11.6 99 14.2
2011-08-03 11:46:23 51°27.496 3°6.584 85.1 11.5 91 14.1
2011-08-03 11:47:23 51°27.479 3°6.891 91.2 11.7 97 13.6
2011-08-03 11:48:23 51°27.467 3°7.199 84.7 11.5 91 13.1
2011-08-03 11:49:23 51°27.456 3°7.507 91.5 11.7 98 12.5
2011-08-03 11:50:23 51°27.444 3°7.815 85.2 11.5 91 11.2
2011-08-03 11:51:23 51°27.424 3°8.125 92 11.8 98 12.4
2011-08-03 11:52:23 51°27.406 3°8.437 85.4 11.6 92 12.6
2011-08-03 11:53:23 51°27.391 3°8.749 87.9 11.8 94 12.6
2011-08-03 11:54:23 51°27.393 3°9.059 81.3 11.6 88 11.8
2011-08-03 11:55:23 51°27.378 3°9.373 90.5 11.9 97 11.2
2011-08-03 11:56:23 51°27.376 3°9.686 82.4 11.7 89 11.4
2011-08-03 11:57:23 51°27.373 3°10.001 85.9 11.8 93 11.1
2011-08-03 11:58:23 51°27.362 3°10.316 82.9 11.8 89 10.8
2011-08-03 11:59:23 51°27.363 3°10.629 84 11.8 90 10.3
2011-08-03 12:00:23 51°27.357 3°10.945 89.9 12 96 10.1
2011-08-03 12:01:23 51°27.348 3°11.262 82.9 11.8 88 9.7
2011-08-03 12:02:23 51°27.339 3°11.578 91.7 12 98 9.4
2011-08-03 12:03:23 51°27.315 3°11.897 91 12 97 9
2011-08-03 12:04:23 51°27.297 3°12.216 89.1 12 95 8.7
2011-08-03 12:05:23 51°27.287 3°12.535 82.7 11.8 87 8.6
2011-08-03 12:06:23 51°27.282 3°12.853 90 12.1 95 8.6
2011-08-03 12:07:23 51°27.285 3°13.173 82.5 12 88 8.6
2011-08-03 12:08:23 51°27.27 3°13.493 93.8 12.3 99 8.7
2011-08-03 12:09:23 51°27.22 3°13.736 124.2 7 135 8.8
2011-08-03 12:10:23 51°27.142 3°13.816 145.9 4.3 153 8.7
2011-08-03 12:11:23 51°27.095 3°13.857 137.1 3.2 150 8.8
2011-08-03 12:12:23 51°27.046 3°13.904 131.4 3.4 146 8.8
2011-08-03 12:13:23 51°27.002 3°13.956 121.4 3.1 141 8.7
2011-08-03 12:14:23 51°26.965 3°14.009 110.4 2.9 136 8.7
2011-08-03 12:15:23 51°26.934 3°14.064 98.9 2.7 127 8.7
2011-08-03 12:16:23 51°26.91 3°14.123 87.8 2.5 119 8.5
2011-08-03 12:17:23 51°26.893 3°14.18 75.9 2.3 111 8.6
2011-08-03 12:18:23 51°26.885 3°14.251 68.2 3 94 8.7
2011-08-03 12:19:23 51°26.886 3°14.334 61.8 3.2 84 8.6
2011-08-03 12:20:23 51°26.896 3°14.415 53.1 3.1 74 8.6
2011-08-03 12:21:23 51°26.914 3°14.488 44.6 2.9 65 8.7
2011-08-03 12:22:23 51°26.938 3°14.552 36.4 2.7 55 8.7
2011-08-03 12:23:23 51°26.968 3°14.609 30.4 2.8 46 8.7
2011-08-03 12:24:23 51°27.001 3°14.652 14.9 2.1 22 8.8
2011-08-03 12:25:23 51°27.028 3°14.619 305.7 2.9 280 8.8
2011-08-03 12:26:23 51°26.994 3°14.535 228.9 4.8 212 8.8
2011-08-03 12:27:23 51°26.904 3°14.474 206 6.6 199 8.7
2011-08-03 12:28:23 51°26.803 3°14.395 230 6.2 225 8.7
2011-08-03 12:29:23 51°26.781 3°14.289 299.5 3.3 286 8.7
2011-08-03 12:30:23 51°26.82 3°14.257 358.3 3.2 359 8.7
2011-08-03 12:31:23 51°26.884 3°14.249 351.6 4.2 350 8.7
2011-08-03 12:32:23 51°26.94 3°14.214 332.8 2.3 322 8.9
2011-08-03 12:33:23 51°26.939 3°14.201 320 0.7 195 8.8
2011-08-03 12:34:23 51°26.926 3°14.196 315.7 0.8 188 8.7
2011-08-03 12:35:23 51°26.911 3°14.194 317.2 0.9 183 8.8
2011-08-03 12:36:23 51°26.897 3°14.194 323.2 0.9 177 8.8
2011-08-03 12:37:23 51°26.882 3°14.197 329.4 0.9 172 8.7
2011-08-03 12:38:23 51°26.866 3°14.202 335.4 0.9 170 8.9
2011-08-03 12:39:23 51°26.851 3°14.208 341.6 1 167 8.8
2011-08-03 12:40:23 51°26.835 3°14.215 346.4 1 163 8.9
2011-08-03 12:41:23 51°26.82 3°14.224 349.3 1 162 8.7
2011-08-03 12:42:23 51°26.804 3°14.232 350.8 1 162 8.8
2011-08-03 12:43:23 51°26.788 3°14.242 350.4 1.1 161 8.7
2011-08-03 12:44:23 51°26.77 3°14.251 349 1.1 161 8.9
2011-08-03 12:45:23 51°26.753 3°14.261 347.3 1.1 161 8.7
2011-08-03 12:46:23 51°26.734 3°14.272 346.3 1.1 159 8.8
2011-08-03 12:47:23 51°26.716 3°14.283 346.6 1.2 159 8.8
2011-08-03 12:48:23 51°26.698 3°14.294 347.2 1.2 160 8.7
2011-08-03 12:49:23 51°26.679 3°14.306 348.6 1.2 159 8.8
2011-08-03 12:50:23 51°26.66 3°14.318 350 1.2 158 8.7
2011-08-03 12:51:23 51°26.641 3°14.33 350.7 1.2 157 8.7
2011-08-03 12:52:23 51°26.622 3°14.343 352 1.3 156 8.9
2011-08-03 12:53:23 51°26.623 3°14.346 342.4 1.1 343 8.7
2011-08-03 12:54:23 51°26.687 3°14.321 349.2 5.9 346 8.7
2011-08-03 12:55:23 51°26.792 3°14.231 329.3 7.9 325 8.8
2011-08-03 12:56:23 51°26.912 3°14.1 329.7 9.5 325 8.8
2011-08-03 12:57:23 51°26.983 3°13.865 286.1 11.1 275 9.1
2011-08-03 12:58:23 51°26.93 3°13.562 255 12.2 249 8.9
2011-08-03 12:59:23 51°26.859 3°13.255 256.3 12.3 250 8.6
2011-08-03 13:00:23 51°26.793 3°12.947 259 12.2 253 8.3
2011-08-03 13:01:23 51°26.738 3°12.635 260.2 12.2 253 8.6
2011-08-03 13:02:23 51°26.675 3°12.326 259.1 12.3 251 8.6
2011-08-03 13:03:23 51°26.593 3°12.026 246.3 12.4 236 8.7
2011-08-03 13:04:23 51°26.434 3°11.801 218 13 212 8.8
2011-08-03 13:05:23 51°26.252 3°11.612 221.6 13 218 8.8
2011-08-03 13:06:23 51°26.084 3°11.394 225.1 13 219 8.8
2011-08-03 13:07:23 51°25.911 3°11.181 222.3 13.1 217 8.7
2011-08-03 13:08:23 51°25.737 3°10.973 223 13 216 8.6
2011-08-03 13:09:23 51°25.555 3°10.78 219.5 13.1 214 8.8
2011-08-03 13:10:23 51°25.38 3°10.576 222.4 12.9 215 8.9
2011-08-03 13:11:23 51°25.201 3°10.384 219.9 12.9 214 9
2011-08-03 13:12:23 51°25.022 3°10.196 216.9 12.9 211 9.3
2011-08-03 13:13:23 51°24.842 3°10.016 218.3 12.7 213 10.1
2011-08-03 13:14:23 51°24.659 3°9.848 210.5 12.8 206 11.2
2011-08-03 13:15:23 51°24.469 3°9.701 203.9 12.7 199 13.1
2011-08-03 13:16:23 51°24.263 3°9.621 196.9 12.6 193 19.6
2011-08-03 13:17:23 51°24.063 3°9.549 192.6 12.4 186 19.8
2011-08-03 13:18:23 51°23.86 3°9.5 198.2 12.2 191 16.9
2011-08-03 13:19:23 51°23.666 3°9.412 203.6 12.1 197 16.7
2011-08-03 13:20:23 51°23.483 3°9.285 210.9 12 204 16.1
2011-08-03 13:21:23 51°23.299 3°9.158 209.1 12.1 204 19.4
2011-08-03 13:22:23 51°23.112 3°9.032 204.8 12.1 200 15.7
2011-08-03 13:23:23 51°22.922 3°8.92 206.2 12.1 201 14.7
2011-08-03 13:24:23 51°22.74 3°8.792 211.4 11.9 206 14.6
2011-08-03 13:25:23 51°22.554 3°8.675 208.4 12 203 14.6
2011-08-03 13:26:23 51°22.375 3°8.543 208.8 11.9 203 14.5
2011-08-03 13:27:23 51°22.188 3°8.428 206.9 12.1 203 14.2
2011-08-03 13:28:23 51°22.008 3°8.291 208.2 12 204 13.6
2011-08-03 13:29:23 51°21.827 3°8.154 209.8 12.1 205 13
2011-08-03 13:30:23 51°21.65 3°8.013 212.7 11.8 208 12.3
2011-08-03 13:31:23 51°21.475 3°7.879 206.9 11.6 201 11.7
2011-08-03 13:32:23 51°21.301 3°7.748 214.9 11.5 213 11
2011-08-03 13:33:23 51°21.154 3°7.56 222.9 11.3 219 10.2
2011-08-03 13:34:23 51°21.006 3°7.374 221.3 11.2 218 10
2011-08-03 13:35:23 51°20.847 3°7.214 215.2 11.2 211 10
2011-08-03 13:36:23 51°20.698 3°7.038 222.2 11.1 218 10
2011-08-03 13:37:23 51°20.552 3°6.856 220.7 11.1 217 10
2011-08-03 13:38:23 51°20.394 3°6.697 214.4 11.2 211 10.3
2011-08-03 13:39:23 51°20.241 3°6.532 221.8 11 219 10.3
2011-08-03 13:40:23 51°20.094 3°6.357 222 10.9 219 10.3
2011-08-03 13:41:23 51°19.953 3°6.177 220.8 10.8 216 10.3
2011-08-03 13:42:23 51°19.799 3°6.025 217.3 10.8 213 10.2
2011-08-03 13:43:23 51°19.649 3°5.866 221.9 10.7 219 10.4
2011-08-03 13:44:23 51°19.505 3°5.701 216.4 10.6 211 10.6
2011-08-03 13:45:23 51°19.365 3°5.533 222.6 10.4 218 10.7
2011-08-03 13:46:23 51°19.223 3°5.371 218.6 10.6 214 10.9
2011-08-03 13:47:23 51°19.091 3°5.185 229.2 10.5 227 11.2
2011-08-03 13:48:23 51°18.974 3°4.979 232.3 10.4 230 11.2
2011-08-03 13:49:23 51°18.872 3°4.756 238.3 10.4 239 11.3
2011-08-03 13:50:23 51°18.781 3°4.523 234.6 10.3 233 11.4
2011-08-03 13:51:23 51°18.681 3°4.301 239 10.4 240 11.4
2011-08-03 13:52:23 51°18.591 3°4.068 234.3 10.3 233 11.4
2011-08-03 13:53:23 51°18.499 3°3.84 240.1 10.2 240 11.5
2011-08-03 13:54:23 51°18.401 3°3.621 234.5 10.1 234 11.5
2011-08-03 13:55:23 51°18.315 3°3.387 238.4 10.2 237 11.6
2011-08-03 13:56:23 51°18.215 3°3.169 234.5 10.2 234 11.6
2011-08-03 13:57:23 51°18.127 3°2.938 241.3 10.2 242 11.7
2011-08-03 13:58:23 51°18.039 3°2.709 236.6 10.2 238 11.6
2011-08-03 13:59:23 51°17.961 3°2.468 241.8 10.2 242 11.7
2011-08-03 14:00:23 51°17.869 3°2.238 239.3 10.3 240 11.9
2011-08-03 14:01:23 51°17.782 3°2.002 236.2 10.3 235 11.8
2011-08-03 14:02:23 51°17.695 3°1.771 242.6 10.2 242 11.8
2011-08-03 14:03:23 51°17.604 3°1.542 237.2 10.2 238 11.9
2011-08-03 14:04:23 51°17.519 3°1.308 242.7 10.2 244 11.9
2011-08-03 14:05:23 51°17.43 3°1.077 236.2 10.2 236 11.9
2011-08-03 14:06:23 51°17.35 3°0.841 241.8 10.2 242 11.9
2011-08-03 14:07:23 51°17.257 3°0.615 235.6 10.2 236 12
2011-08-03 14:08:23 51°17.17 3°0.385 236.9 10.1 235 11.9
2011-08-03 14:09:23 51°17.073 3°0.163 237 10.3 237 12
2011-08-03 14:10:23 51°16.99 2°59.927 239.6 10.1 238 12
2011-08-03 14:11:23 51°16.894 2°59.708 236.7 10.1 237 11.8
2011-08-03 14:12:23 51°16.808 2°59.476 236.6 10.2 235 11.8
2011-08-03 14:13:23 51°16.714 2°59.251 240.8 10.2 242 11.7
2011-08-03 14:14:23 51°16.631 2°59.014 237.4 10.3 236 11.6
2011-08-03 14:15:23 51°16.541 2°58.781 241.8 10.3 243 11.6
2011-08-03 14:16:23 51°16.447 2°58.553 234.6 10.3 233 11.6
2011-08-03 14:17:23 51°16.358 2°58.317 240.9 10.5 241 11.4
2011-08-03 14:18:23 51°16.262 2°58.086 238.3 10.6 238 11.2
2011-08-03 14:19:23 51°16.175 2°57.846 237.4 10.5 235 11.2
2011-08-03 14:20:23 51°16.066 2°57.627 233.5 10.5 232 10.9
2011-08-03 14:21:23 51°15.968 2°57.397 240 10.5 240 10.8
2011-08-03 14:22:23 51°15.868 2°57.169 232.6 10.5 231 10.6
2011-08-03 14:23:23 51°15.774 2°56.936 239.7 10.4 240 10.6
2011-08-03 14:24:23 51°15.68 2°56.706 235.6 10.3 234 10.7
2011-08-03 14:25:23 51°15.573 2°56.492 233.1 10.4 232 11
2011-08-03 14:26:23 51°15.469 2°56.271 233.7 10.3 230 11.2
2011-08-03 14:27:23 51°15.351 2°56.074 227.2 10.4 223 11.4
2011-08-03 14:28:23 51°15.225 2°55.886 225.1 10.4 221 11.7
2011-08-03 14:29:23 51°15.112 2°55.679 234.1 10.3 232 12.1
2011-08-03 14:30:23 51°14.999 2°55.475 229.5 10.2 226 12.4
2011-08-03 14:31:23 51°14.881 2°55.282 228.4 10.2 223 12.8
2011-08-03 14:32:23 51°14.749 2°55.112 220.7 10.2 215 13.1
2011-08-03 14:33:23 51°14.591 2°55.008 197.2 10.5 184 14.7
2011-08-03 14:34:23 51°14.415 2°55.111 146.5 12 146 14
2011-08-03 14:35:24 51°14.257 2°55.294 144.9 10.5 147 14.4
2011-08-03 14:36:23 51°14.125 2°55.414 153.8 8.4 154 14.4
2011-08-03 14:37:24 51°14.002 2°55.504 156.1 7.3 156 14.6
2011-08-03 14:38:23 51°13.902 2°55.575 155.8 6.6 156 14.8
2011-08-03 14:39:23 51°13.802 2°55.65 150.3 6.4 149 14.8
2011-08-03 14:40:23 51°13.725 2°55.755 132.4 5.8 133 -999
2011-08-03 14:41:23 51°13.678 2°55.856 123.9 4 125 13.3
2011-08-03 14:42:23 51°13.648 2°55.941 110.9 3.5 111 14.5
2011-08-03 14:43:23 51°13.638 2°56.007 100.3 1.2 92 10.9
2011-08-03 14:44:23 51°13.636 2°56.018 114.9 0.4 110 10.6
2011-08-03 14:45:24 51°13.636 2°56.019 120.6 0.1 310 10.6
2011-08-03 14:46:23 51°13.636 2°56.02 126.7 -999 29 10.5